Taxila Weather



Taxila's Current Weather

Temprature 11.67o clear sky

clear sky

Rain: 0 %

Min Temprature11.67o
Max Temprature11.67o
Humidity31
Wind Speed1.61 m/h
Sun Rise06:58:27
Sun Set17:00:11
Current Time: 05-Dec-2023 23:16:51
Lat/Lon: 33.7476, 72.8075




Taxila's Geo Location



Taxila's Weather Forecast

Time Overall Temp Min Temp Max Temp Humidity Wind Speed Rain
06-Dec-2023 (Wed)
02:00:00 clear sky 11.540 11.290 11.540 31 1.54 m/h 0 %
05:00:00 clear sky 10.830 10.410 10.830 30 1.77 m/h 0 %
08:00:00 clear sky 11.400 11.400 11.400 31 1.47 m/h 0 %
11:00:00 clear sky 18.010 18.010 18.010 19 1.39 m/h 0 %
14:00:00 clear sky 20.520 20.520 20.520 17 2.25 m/h 0 %
17:00:00 clear sky 15.680 15.680 15.680 24 1.58 m/h 0 %
20:00:00 clear sky 13.530 13.530 13.530 26 1.46 m/h 0 %
23:00:00 clear sky 12.290 12.290 12.290 30 1.36 m/h 0 %
07-Dec-2023 (Thu)
02:00:00 clear sky 11.420 11.420 11.420 32 1.4 m/h 0 %
05:00:00 clear sky 10.660 10.660 10.660 31 1.48 m/h 0 %
08:00:00 clear sky 11.500 11.500 11.500 30 1.67 m/h 0 %
11:00:00 clear sky 18.510 18.510 18.510 19 1.75 m/h 0 %
14:00:00 clear sky 20.960 20.960 20.960 16 2.29 m/h 0 %
17:00:00 clear sky 15.690 15.690 15.690 24 1.52 m/h 0 %
20:00:00 scattered clouds 13.600 13.600 13.600 27 1.28 m/h 0 %
23:00:00 few clouds 12.410 12.410 12.410 30 1.14 m/h 0 %
08-Dec-2023 (Fri)
02:00:00 clear sky 11.540 11.540 11.540 32 1.35 m/h 0 %
05:00:00 few clouds 10.840 10.840 10.840 32 1.3 m/h 0 %
08:00:00 few clouds 11.920 11.920 11.920 32 1.25 m/h 0 %
11:00:00 few clouds 18.330 18.330 18.330 21 1.08 m/h 0 %
14:00:00 overcast clouds 20.050 20.050 20.050 20 1.35 m/h 0 %
17:00:00 overcast clouds 15.410 15.410 15.410 29 0.62 m/h 0 %
20:00:00 clear sky 13.260 13.260 13.260 32 1.27 m/h 0 %
23:00:00 clear sky 12.050 12.050 12.050 33 1.64 m/h 0 %
09-Dec-2023 (Sat)
02:00:00 clear sky 11.170 11.170 11.170 34 1.23 m/h 0 %
05:00:00 clear sky 10.050 10.050 10.050 38 1.51 m/h 0 %
08:00:00 clear sky 11.040 11.040 11.040 38 1.48 m/h 0 %
11:00:00 clear sky 17.580 17.580 17.580 23 2.06 m/h 0 %
14:00:00 clear sky 19.950 19.950 19.950 20 2.65 m/h 0 %
17:00:00 clear sky 15.160 15.160 15.160 27 1.89 m/h 0 %
20:00:00 clear sky 13.040 13.040 13.040 30 1.69 m/h 0 %
23:00:00 clear sky 11.790 11.790 11.790 33 1.45 m/h 0 %
10-Dec-2023 (Sun)
02:00:00 clear sky 10.770 10.770 10.770 35 1.91 m/h 0 %
05:00:00 clear sky 9.840 9.840 9.840 34 1.74 m/h 0 %
08:00:00 clear sky 10.450 10.450 10.450 31 2.04 m/h 0 %
11:00:00 few clouds 17.620 17.620 17.620 19 2.29 m/h 0 %
14:00:00 clear sky 20.140 20.140 20.140 17 2.76 m/h 0 %
17:00:00 few clouds 15.170 15.170 15.170 24 1.68 m/h 0 %
20:00:00 overcast clouds 13.420 13.420 13.420 26 1.1 m/h 0 %
23:00:00 broken clouds 12.360 12.360 12.360 28 2.4 m/h 0 %

Famous Cities (61)